createdAt,value
2023-01-18T00:00:40.453Z,16.52
2023-01-18T00:03:13.099Z,17.85
2023-01-18T00:05:42.122Z,13.38
2023-01-18T00:08:09.423Z,14.02
2023-01-18T00:10:36.252Z,15.05
2023-01-18T00:13:03.790Z,14.93
2023-01-18T00:15:33.591Z,12.38
2023-01-18T00:18:00.510Z,13.95
2023-01-18T00:20:29.080Z,12.23
2023-01-18T00:22:56.707Z,12.40
2023-01-18T00:25:24.611Z,15.48
2023-01-18T00:27:55.150Z,14.52
2023-01-18T00:30:24.972Z,13.77
2023-01-18T00:32:57.953Z,12.15
2023-01-18T00:35:25.625Z,12.75
2023-01-18T00:37:54.078Z,12.80
2023-01-18T00:40:22.215Z,14.30
2023-01-18T00:43:07.327Z,12.43
2023-01-18T00:45:34.144Z,14.48
2023-01-18T00:48:02.573Z,15.38
2023-01-18T00:50:29.388Z,18.70
2023-01-18T00:52:58.633Z,15.82
2023-01-18T00:55:26.288Z,18.42
2023-01-18T00:57:52.817Z,19.23
2023-01-18T01:00:19.493Z,17.27
2023-01-18T01:02:46.031Z,17.42
2023-01-18T01:05:40.063Z,16.10
2023-01-18T01:08:07.251Z,16.95
2023-01-18T01:10:36.629Z,16.42
2023-01-18T01:13:21.995Z,17.17
2023-01-18T01:16:07.132Z,17.17
2023-01-18T01:18:52.162Z,20.40
2023-01-18T01:21:37.334Z,20.05
2023-01-18T01:24:23.120Z,17.08
2023-01-18T01:26:49.654Z,18.55
2023-01-18T01:29:16.813Z,17.30
2023-01-18T01:31:43.509Z,17.33
2023-01-18T01:34:10.236Z,14.63
2023-01-18T01:36:36.909Z,16.02
2023-01-18T01:39:03.864Z,14.95
2023-01-18T01:41:32.745Z,16.25
2023-01-18T01:44:04.478Z,14.80
2023-01-18T01:46:46.398Z,15.20
2023-01-18T01:49:20.998Z,13.88
2023-01-18T01:51:52.560Z,12.55
2023-01-18T01:54:27.516Z,14.80
2023-01-18T01:57:06.029Z,14.10
2023-01-18T01:59:40.855Z,11.80
2023-01-18T02:02:07.606Z,10.15
2023-01-18T02:04:35.318Z,11.40
2023-01-18T02:07:02.134Z,10.32
2023-01-18T02:09:28.770Z,8.10
2023-01-18T02:11:55.580Z,8.07
2023-01-18T02:14:27.022Z,8.55
2023-01-18T02:16:53.594Z,6.10
2023-01-18T02:19:23.076Z,6.13
2023-01-18T02:22:01.953Z,5.88
2023-01-18T02:24:59.196Z,6.75
2023-01-18T02:27:31.835Z,6.25
2023-01-18T02:30:14.564Z,5.97
2023-01-18T02:32:52.972Z,7.35
2023-01-18T02:35:36.758Z,6.10
2023-01-18T02:38:10.012Z,7.93
2023-01-18T02:40:59.833Z,6.55
2023-01-18T02:43:46.467Z,7.70
2023-01-18T02:46:30.753Z,8.68
2023-01-18T02:48:58.911Z,9.23
2023-01-18T02:51:25.500Z,8.80
2023-01-18T02:53:52.327Z,9.73
2023-01-18T02:56:50.245Z,8.52
2023-01-18T02:59:26.923Z,7.85
2023-01-18T03:02:02.691Z,9.57
2023-01-18T03:04:34.354Z,9.60
2023-01-18T03:07:11.332Z,11.75
2023-01-18T03:09:40.163Z,9.02
2023-01-18T03:12:21.644Z,8.95
2023-01-18T03:15:08.434Z,6.33
2023-01-18T03:17:42.193Z,8.10
2023-01-18T03:20:15.554Z,7.38
2023-01-18T03:23:10.089Z,11.02
2023-01-18T03:25:41.250Z,10.30
2023-01-18T03:28:31.541Z,11.32
2023-01-18T03:31:20.211Z,10.95
2023-01-18T03:33:55.741Z,10.98
2023-01-18T03:36:33.586Z,10.38
2023-01-18T03:39:05.249Z,9.02
2023-01-18T03:41:39.744Z,8.88
2023-01-18T03:44:14.167Z,7.47
2023-01-18T03:46:43.676Z,9.73
2023-01-18T03:49:11.341Z,7.25
2023-01-18T03:52:01.723Z,7.55
2023-01-18T03:54:53.444Z,6.53
2023-01-18T03:57:28.787Z,6.90
2023-01-18T03:59:56.568Z,12.32
2023-01-18T04:02:24.119Z,10.95
2023-01-18T04:04:55.227Z,7.93
2023-01-18T04:07:21.896Z,8.15
2023-01-18T04:09:48.532Z,7.95
2023-01-18T04:12:15.180Z,7.90
2023-01-18T04:14:41.670Z,7.55
2023-01-18T04:17:08.314Z,7.35
2023-01-18T04:19:34.931Z,7.95
2023-01-18T04:22:01.531Z,8.38
2023-01-18T04:24:29.391Z,9.38
2023-01-18T04:26:56.026Z,7.78
2023-01-18T04:29:22.570Z,8.43
2023-01-18T04:31:49.202Z,8.82
2023-01-18T04:34:15.897Z,8.57
2023-01-18T04:36:42.554Z,7.97
2023-01-18T04:39:13.031Z,8.05
2023-01-18T04:41:39.692Z,10.40
2023-01-18T04:44:06.293Z,9.35
2023-01-18T04:46:33.014Z,9.75
2023-01-18T04:49:01.908Z,9.10
2023-01-18T04:51:31.226Z,10.98
2023-01-18T04:53:59.356Z,6.80
2023-01-18T04:56:26.205Z,7.88
2023-01-18T04:58:54.543Z,8.30
2023-01-18T05:01:22.110Z,8.32
2023-01-18T05:03:49.212Z,9.82
2023-01-18T05:06:16.648Z,9.73
2023-01-18T05:08:43.248Z,9.77
2023-01-18T05:11:12.419Z,11.27
2023-01-18T05:13:40.130Z,11.82
2023-01-18T05:16:07.995Z,13.30
2023-01-18T05:18:34.682Z,52.70
2023-01-18T05:21:01.328Z,57.38
2023-01-18T05:23:27.834Z,87.15
2023-01-18T05:25:56.193Z,65.70
2023-01-18T05:28:24.622Z,72.43
2023-01-18T05:30:51.851Z,41.08
2023-01-18T05:33:19.318Z,36.88
2023-01-18T05:35:54.125Z,25.27
2023-01-18T05:38:22.239Z,25.50
2023-01-18T05:40:52.505Z,21.08
2023-01-18T05:43:20.497Z,51.80
2023-01-18T05:45:47.117Z,24.90
2023-01-18T05:48:13.768Z,30.38
2023-01-18T05:50:44.686Z,29.10
2023-01-18T05:53:18.245Z,28.88
2023-01-18T05:55:54.053Z,29.48
2023-01-18T05:58:20.846Z,58.05
2023-01-18T06:00:47.430Z,33.40
2023-01-18T06:03:16.563Z,28.30
2023-01-18T06:05:43.134Z,29.35
2023-01-18T06:08:09.776Z,26.42
2023-01-18T06:10:36.382Z,21.42
2023-01-18T06:13:03.111Z,21.50
2023-01-18T06:15:29.668Z,26.70
2023-01-18T06:17:56.328Z,25.50
2023-01-18T06:20:22.894Z,37.08
2023-01-18T06:22:49.529Z,38.75
2023-01-18T06:25:16.717Z,33.67
2023-01-18T06:27:43.376Z,25.40
2023-01-18T06:30:11.111Z,21.10
2023-01-18T06:32:37.821Z,22.55
2023-01-18T06:35:04.802Z,24.23
2023-01-18T06:37:31.440Z,22.92
2023-01-18T06:39:58.445Z,20.23
2023-01-18T06:42:25.139Z,22.88
2023-01-18T06:44:51.694Z,20.75
2023-01-18T06:47:20.067Z,22.25
2023-01-18T06:49:50.136Z,27.73
2023-01-18T06:52:16.821Z,23.65
2023-01-18T06:54:44.696Z,24.27
2023-01-18T06:57:12.265Z,76.60
2023-01-18T06:59:39.653Z,93.80
2023-01-18T07:02:07.165Z,83.10
2023-01-18T07:04:37.861Z,55.05
2023-01-18T07:07:04.630Z,48.28
2023-01-18T07:09:31.145Z,40.80
2023-01-18T07:11:57.863Z,30.23
2023-01-18T07:14:24.396Z,32.10
2023-01-18T07:16:51.002Z,33.15
2023-01-18T07:19:17.608Z,33.03
2023-01-18T07:21:44.628Z,36.05
2023-01-18T07:24:11.588Z,35.83
2023-01-18T07:26:38.460Z,32.75
2023-01-18T07:29:05.051Z,32.15
2023-01-18T07:31:31.836Z,27.98
2023-01-18T07:33:58.615Z,29.15
2023-01-18T07:36:25.211Z,55.90
2023-01-18T07:38:52.265Z,77.40
2023-01-18T07:41:19.239Z,58.88
2023-01-18T07:43:46.107Z,37.63
2023-01-18T07:46:16.913Z,32.67
2023-01-18T07:48:44.832Z,39.13
2023-01-18T07:51:11.785Z,60.17
2023-01-18T07:53:39.027Z,44.70
2023-01-18T07:56:12.673Z,22.35
2023-01-18T07:58:39.814Z,20.08
2023-01-18T08:01:15.169Z,20.95
2023-01-18T08:03:43.443Z,76.88
2023-01-18T08:06:10.375Z,33.38
2023-01-18T08:08:37.299Z,30.33
2023-01-18T08:11:06.162Z,27.63
2023-01-18T08:13:33.548Z,28.45
2023-01-18T08:16:02.486Z,24.52
2023-01-18T08:18:31.928Z,30.48
2023-01-18T08:20:59.032Z,20.92
2023-01-18T08:23:26.226Z,25.63
2023-01-18T08:25:53.196Z,35.50
2023-01-18T08:28:19.919Z,44.00
2023-01-18T08:30:50.949Z,51.65
2023-01-18T08:33:17.582Z,47.58
2023-01-18T08:35:46.565Z,60.83
2023-01-18T08:38:15.678Z,37.88
2023-01-18T08:40:43.305Z,40.75
2023-01-18T08:43:10.929Z,37.70
2023-01-18T08:45:38.402Z,33.88
2023-01-18T08:48:07.710Z,40.63
2023-01-18T08:50:35.577Z,45.17
2023-01-18T08:53:02.903Z,51.40
2023-01-18T08:55:30.132Z,36.97
2023-01-18T08:57:58.173Z,47.50
2023-01-18T09:00:30.198Z,40.95
2023-01-18T09:02:58.215Z,27.35
2023-01-18T09:05:26.967Z,27.15
2023-01-18T09:07:55.255Z,21.00
2023-01-18T09:10:22.589Z,19.27
2023-01-18T09:12:49.448Z,20.60
2023-01-18T09:15:16.164Z,23.20
2023-01-18T09:17:42.851Z,23.52
2023-01-18T09:20:11.940Z,25.88
2023-01-18T09:22:39.475Z,26.13
2023-01-18T09:25:06.805Z,30.50
2023-01-18T09:27:33.710Z,30.50
2023-01-18T09:30:00.516Z,48.58
2023-01-18T09:32:27.474Z,50.13
2023-01-18T09:34:57.725Z,41.65
2023-01-18T09:39:51.475Z,24.92
2023-01-18T09:42:22.546Z,22.83
2023-01-18T09:44:58.577Z,24.48
2023-01-18T09:47:39.952Z,27.40
2023-01-18T09:50:16.243Z,21.90
2023-01-18T09:53:20.031Z,23.52
2023-01-18T09:56:21.156Z,22.33
2023-01-18T10:01:14.470Z,23.40
2023-01-18T10:03:57.983Z,29.02
2023-01-18T10:06:29.367Z,27.13
2023-01-18T10:09:04.351Z,23.60
2023-01-18T10:11:44.703Z,40.35
2023-01-18T10:14:16.875Z,41.15
2023-01-18T10:16:43.439Z,36.50
2023-01-18T10:19:22.533Z,28.52
2023-01-18T10:22:05.208Z,28.60
2023-01-18T10:24:42.643Z,26.88
2023-01-18T10:27:15.519Z,21.02
2023-01-18T10:30:14.204Z,23.27
2023-01-18T10:32:51.675Z,21.00
2023-01-18T10:35:30.861Z,89.10
2023-01-18T10:38:03.706Z,21.10
2023-01-18T10:40:30.394Z,21.42
2023-01-18T10:43:01.521Z,26.50
2023-01-18T10:45:31.898Z,53.97
2023-01-18T10:48:29.668Z,20.42
2023-01-18T10:51:05.865Z,23.67
2023-01-18T10:53:39.408Z,16.25
2023-01-18T10:56:26.539Z,23.00
2023-01-18T10:58:55.536Z,15.20
2023-01-18T11:01:53.058Z,15.63
2023-01-18T11:04:28.061Z,16.83
2023-01-18T11:06:57.478Z,13.98
2023-01-18T11:09:46.849Z,15.38
2023-01-18T11:12:34.983Z,19.50
2023-01-18T11:15:13.671Z,24.92
2023-01-18T11:18:00.332Z,48.42
2023-01-18T11:20:37.727Z,21.08
2023-01-18T11:23:07.629Z,18.90
2023-01-18T11:25:41.404Z,18.65
2023-01-18T11:28:20.001Z,22.67
2023-01-18T11:30:56.855Z,22.20
2023-01-18T11:33:25.949Z,16.65
2023-01-18T11:35:55.174Z,20.67
2023-01-18T11:38:27.990Z,18.92
2023-01-18T11:41:06.233Z,17.52
2023-01-18T11:43:36.083Z,24.00
2023-01-18T11:46:20.850Z,17.38
2023-01-18T11:48:52.826Z,16.20
2023-01-18T11:51:22.603Z,16.67
2023-01-18T11:54:01.456Z,16.73
2023-01-18T11:56:51.953Z,17.73
2023-01-18T11:59:25.988Z,17.02
2023-01-18T12:01:52.533Z,17.67
2023-01-18T12:04:33.530Z,16.40
2023-01-18T12:07:18.969Z,14.77
2023-01-18T12:09:54.458Z,16.90
2023-01-18T12:12:53.418Z,26.85
2023-01-18T12:15:51.945Z,22.60
2023-01-18T12:18:38.250Z,18.95
2023-01-18T12:21:24.630Z,20.70
2023-01-18T12:24:09.554Z,17.38
2023-01-18T12:26:57.996Z,15.57
2023-01-18T12:29:33.862Z,16.88
2023-01-18T12:32:06.979Z,64.72
2023-01-18T12:35:15.611Z,31.05
2023-01-18T12:38:19.026Z,17.88
2023-01-18T12:40:54.642Z,15.88
2023-01-18T12:43:21.184Z,16.50
2023-01-18T12:45:54.241Z,16.10
2023-01-18T12:48:28.151Z,19.92
2023-01-18T12:50:56.629Z,21.27
2023-01-18T12:53:39.696Z,21.30
2023-01-18T12:56:22.715Z,21.67
2023-01-18T12:58:56.310Z,21.40
2023-01-18T13:01:27.099Z,24.33
2023-01-18T13:04:01.852Z,22.08
2023-01-18T13:06:29.915Z,23.80
2023-01-18T13:09:18.691Z,27.05
2023-01-18T13:11:46.021Z,25.58
2023-01-18T13:14:33.456Z,30.50
2023-01-18T13:17:02.839Z,24.40
2023-01-18T13:19:42.976Z,24.13
2023-01-18T13:22:19.437Z,25.95
2023-01-18T13:25:09.020Z,23.70
2023-01-18T13:27:37.798Z,24.33
2023-01-18T13:30:24.773Z,23.08
2023-01-18T13:32:52.169Z,32.28
2023-01-18T13:35:25.872Z,27.75
2023-01-18T13:37:56.571Z,23.70
2023-01-18T13:40:31.138Z,58.60
2023-01-18T13:42:59.900Z,23.60
2023-01-18T13:45:30.417Z,34.13
2023-01-18T13:48:07.761Z,33.25
2023-01-18T13:50:36.865Z,46.72
2023-01-18T13:53:15.669Z,27.48
2023-01-18T13:56:25.732Z,26.27
2023-01-18T13:59:01.576Z,41.22
2023-01-18T14:01:33.039Z,50.92
2023-01-18T14:04:17.332Z,37.20
2023-01-18T14:06:45.517Z,20.30
2023-01-18T14:09:15.013Z,20.95
2023-01-18T14:11:54.310Z,13.95
2023-01-18T14:14:20.880Z,12.55
2023-01-18T14:17:16.386Z,18.85
2023-01-18T14:19:49.027Z,26.23
2023-01-18T14:22:34.493Z,14.13
2023-01-18T14:25:26.213Z,12.68
2023-01-18T14:28:25.762Z,14.07
2023-01-18T14:30:58.491Z,15.88
2023-01-18T14:33:37.599Z,13.13
2023-01-18T14:36:08.309Z,19.15
2023-01-18T14:38:35.145Z,19.17
2023-01-18T14:41:08.626Z,19.50
2023-01-18T14:43:41.645Z,14.75
2023-01-18T14:46:16.188Z,17.63
2023-01-18T14:48:57.201Z,20.58
2023-01-18T14:51:26.632Z,23.08
2023-01-18T14:53:57.853Z,20.52
2023-01-18T14:56:29.185Z,20.67
2023-01-18T15:01:28.937Z,26.90
2023-01-18T15:03:57.555Z,37.85
2023-01-18T15:06:32.202Z,24.63
2023-01-18T15:08:59.278Z,38.58
2023-01-18T15:11:26.686Z,34.15
2023-01-18T15:13:57.129Z,55.83
2023-01-18T15:16:30.356Z,52.45
2023-01-18T15:18:58.816Z,50.20
2023-01-18T15:21:30.183Z,68.93
2023-01-18T15:24:04.766Z,46.70
2023-01-18T15:26:55.851Z,38.58
2023-01-18T15:29:27.966Z,32.75
2023-01-18T15:32:16.691Z,27.27
2023-01-18T15:34:46.648Z,30.83
2023-01-18T15:37:27.502Z,68.00
2023-01-18T15:39:57.817Z,53.83
2023-01-18T15:42:37.063Z,30.13
2023-01-18T15:45:04.682Z,30.95
2023-01-18T15:47:36.747Z,24.05
2023-01-18T15:50:15.618Z,20.88
2023-01-18T15:52:45.613Z,22.67
2023-01-18T15:55:48.027Z,32.20
2023-01-18T15:58:55.819Z,33.05
2023-01-18T16:01:34.012Z,52.63
2023-01-18T16:04:21.790Z,29.25
2023-01-18T16:06:51.974Z,38.40
2023-01-18T16:09:21.661Z,28.15
2023-01-18T16:11:52.692Z,28.75
2023-01-18T16:14:28.300Z,22.63
2023-01-18T16:17:07.478Z,28.23
2023-01-18T16:19:49.168Z,32.38
2023-01-18T16:22:29.479Z,29.55
2023-01-18T16:24:57.735Z,41.60
2023-01-18T16:27:26.502Z,60.25
2023-01-18T16:30:00.327Z,36.05
2023-01-18T16:32:29.813Z,27.67
2023-01-18T16:34:59.781Z,28.90
2023-01-18T16:37:26.730Z,34.13
2023-01-18T16:39:55.262Z,23.05
2023-01-18T16:42:29.622Z,23.98
2023-01-18T16:45:04.311Z,47.00
2023-01-18T16:47:30.818Z,65.00
